createdAt,value
2023-01-18T00:06:21.162Z,2.45
2023-01-18T00:14:26.547Z,3.40
2023-01-18T00:22:34.413Z,4.47
2023-01-18T00:30:39.727Z,2.70
2023-01-18T00:38:54.129Z,2.83
2023-01-18T00:46:59.572Z,3.33
2023-01-18T00:55:09.108Z,3.70
2023-01-18T01:03:16.033Z,2.72
2023-01-18T01:11:23.978Z,3.78
2023-01-18T01:19:41.673Z,3.17
2023-01-18T01:27:49.634Z,4.78
2023-01-18T01:35:58.794Z,4.10
2023-01-18T01:44:24.560Z,5.30
2023-01-18T01:52:34.686Z,4.68
2023-01-18T02:00:42.938Z,3.40
2023-01-18T02:08:49.844Z,6.50
2023-01-18T02:17:11.728Z,6.80
2023-01-18T02:25:37.374Z,3.78
2023-01-18T02:33:49.845Z,2.88
2023-01-18T02:42:12.251Z,4.93
2023-01-18T02:50:29.361Z,5.10
2023-01-18T02:58:37.781Z,4.95
2023-01-18T03:06:51.656Z,3.05
2023-01-18T03:15:05.215Z,4.20
2023-01-18T03:23:30.745Z,3.92
2023-01-18T03:31:59.855Z,4.30
2023-01-18T03:40:13.399Z,4.60
2023-01-18T03:48:18.909Z,4.22
2023-01-18T03:56:32.755Z,3.67
2023-01-18T04:04:38.414Z,7.97
2023-01-18T04:12:46.428Z,2.80
2023-01-18T04:20:56.482Z,4.50
2023-01-18T04:29:04.844Z,3.72
2023-01-18T04:37:10.117Z,3.30
2023-01-18T04:45:19.774Z,3.45
2023-01-18T04:53:25.428Z,3.10
2023-01-18T05:01:33.720Z,3.38
2023-01-18T05:09:39.129Z,3.40
2023-01-18T05:17:47.215Z,5.78
2023-01-18T05:25:56.761Z,4.55
2023-01-18T05:34:04.680Z,5.05
2023-01-18T05:42:10.056Z,3.95
2023-01-18T05:50:18.452Z,3.95
2023-01-18T05:58:23.739Z,3.05
2023-01-18T06:06:33.022Z,5.32
2023-01-18T06:14:39.827Z,5.13
2023-01-18T06:22:49.504Z,6.90
2023-01-18T06:30:56.535Z,4.38
2023-01-18T06:39:07.463Z,5.10
2023-01-18T06:47:13.062Z,3.83
2023-01-18T06:55:21.917Z,2.47
2023-01-18T07:03:27.814Z,3.97
2023-01-18T07:11:35.875Z,5.43
2023-01-18T07:19:41.210Z,4.25
2023-01-18T07:27:49.246Z,2.42
2023-01-18T07:35:56.029Z,3.50
2023-01-18T07:44:04.298Z,2.17
2023-01-18T07:52:09.585Z,5.47
2023-01-18T08:00:18.316Z,4.78
2023-01-18T08:08:23.614Z,2.85
2023-01-18T08:16:31.595Z,6.25
2023-01-18T08:24:37.171Z,3.45
2023-01-18T08:32:45.076Z,3.40
2023-01-18T08:40:50.543Z,8.32
2023-01-18T08:48:59.889Z,12.00
2023-01-18T08:57:05.695Z,3.70
2023-01-18T09:05:13.955Z,5.30
2023-01-18T09:13:19.466Z,3.47
2023-01-18T09:21:28.120Z,3.85
2023-01-18T09:29:34.051Z,3.85
2023-01-18T09:37:42.071Z,2.90
2023-01-18T09:45:50.328Z,4.88
2023-01-18T09:54:07.887Z,3.00
2023-01-18T10:02:24.008Z,2.47
2023-01-18T10:10:35.349Z,0.93
2023-01-18T10:18:45.859Z,0.50
2023-01-18T10:27:00.250Z,0.40
2023-01-18T10:35:16.293Z,3.97
2023-01-18T10:43:28.205Z,4.10
2023-01-18T10:51:36.917Z,3.85
2023-01-18T10:59:46.001Z,5.63
2023-01-18T11:08:17.284Z,5.50
2023-01-18T11:16:29.107Z,5.10
2023-01-18T11:24:35.835Z,5.45
2023-01-18T11:32:44.052Z,4.43
2023-01-18T11:40:50.064Z,2.65
2023-01-18T11:49:06.163Z,3.17
2023-01-18T11:57:16.357Z,2.28
2023-01-18T12:05:53.093Z,2.22
2023-01-18T12:14:05.317Z,2.05
2023-01-18T12:22:34.304Z,2.40
2023-01-18T12:30:55.105Z,0.98
2023-01-18T12:39:12.080Z,5.03
2023-01-18T12:47:35.575Z,2.05
2023-01-18T12:55:48.058Z,2.70
2023-01-18T13:03:56.184Z,2.78
2023-01-18T13:12:05.985Z,1.42
2023-01-18T13:20:20.142Z,2.83
2023-01-18T13:28:29.377Z,1.40
2023-01-18T13:36:47.688Z,5.35
2023-01-18T13:45:15.990Z,1.10
2023-01-18T13:53:31.440Z,2.53
2023-01-18T14:01:43.231Z,3.28
2023-01-18T14:09:51.226Z,4.47
2023-01-18T14:18:00.280Z,2.30
2023-01-18T14:26:07.770Z,3.55
2023-01-18T14:34:39.678Z,2.47
2023-01-18T14:42:51.302Z,3.03
2023-01-18T14:51:02.029Z,4.40
2023-01-18T14:59:22.957Z,4.53
2023-01-18T15:07:34.919Z,4.05
2023-01-18T15:15:43.571Z,4.93
2023-01-18T15:23:53.453Z,11.75
2023-01-18T15:32:01.911Z,7.20
2023-01-18T15:40:27.283Z,4.03
2023-01-18T15:48:38.969Z,7.18
2023-01-18T15:56:47.407Z,11.63
2023-01-18T16:05:11.704Z,10.32
2023-01-18T16:13:39.115Z,18.90
2023-01-18T16:21:52.325Z,22.55
2023-01-18T16:30:02.031Z,17.33
2023-01-18T16:38:08.018Z,11.48
2023-01-18T16:46:16.375Z,16.77
2023-01-18T16:54:21.955Z,12.13
2023-01-18T17:02:29.988Z,11.90
2023-01-18T17:10:41.169Z,12.38
2023-01-18T17:18:50.035Z,15.20
2023-01-18T17:26:55.499Z,13.45
2023-01-18T17:35:03.748Z,14.50
2023-01-18T17:43:09.650Z,15.55
2023-01-18T17:51:17.748Z,23.77
2023-01-18T17:59:23.901Z,18.88
2023-01-18T18:07:32.233Z,17.92
2023-01-18T18:15:37.769Z,12.95
2023-01-18T18:23:48.049Z,10.05
2023-01-18T18:31:53.828Z,17.35
2023-01-18T18:40:01.848Z,11.75
2023-01-18T18:48:07.766Z,11.75
2023-01-18T18:56:15.919Z,10.60
2023-01-18T19:04:22.289Z,10.43
2023-01-18T19:12:34.007Z,11.77
2023-01-18T19:20:40.515Z,11.95
2023-01-18T19:28:50.097Z,12.90
2023-01-18T19:36:55.451Z,13.93
2023-01-18T19:45:04.824Z,6.97
2023-01-18T19:53:10.255Z,5.22
2023-01-18T20:01:35.171Z,5.53
2023-01-18T20:09:43.701Z,7.15
2023-01-18T20:17:52.411Z,7.13
2023-01-18T20:25:57.946Z,5.22
2023-01-18T20:34:06.559Z,7.70
2023-01-18T20:42:12.423Z,9.15
2023-01-18T20:50:23.337Z,6.72
2023-01-18T20:58:29.499Z,9.02
2023-01-18T21:06:37.927Z,9.55
2023-01-18T21:14:43.295Z,5.13
2023-01-18T21:22:53.404Z,4.25
2023-01-18T21:31:00.105Z,5.90
2023-01-18T21:39:08.527Z,3.05
2023-01-18T21:47:17.825Z,6.13
2023-01-18T21:55:26.096Z,4.80
2023-01-18T22:03:31.975Z,5.72
2023-01-18T22:11:40.395Z,5.75
2023-01-18T22:19:45.879Z,6.25
2023-01-18T22:27:54.209Z,4.82
2023-01-18T22:36:03.978Z,6.15
2023-01-18T22:44:14.414Z,8.98
2023-01-18T22:52:19.772Z,8.48
2023-01-18T23:00:28.117Z,3.45
2023-01-18T23:08:42.680Z,4.10
2023-01-18T23:17:02.980Z,9.93
2023-01-18T23:25:09.058Z,4.53
2023-01-18T23:33:16.994Z,5.90
2023-01-18T23:41:34.790Z,6.38
2023-01-18T23:49:55.058Z,5.30
2023-01-18T23:58:02.068Z,10.25
